sensor_id;sensor_type;location;lat;lon;timestamp;temperature;humidity
66522;SHT31;53349;53.538;8.584;2023-05-27T00:00:53;11.64;69.86
66522;SHT31;53349;53.538;8.584;2023-05-27T00:03:18;11.57;69.93
66522;SHT31;53349;53.538;8.584;2023-05-27T00:05:43;11.51;70.25
66522;SHT31;53349;53.538;8.584;2023-05-27T00:08:08;11.54;70.13
66522;SHT31;53349;53.538;8.584;2023-05-27T00:10:35;11.56;70.08
66522;SHT31;53349;53.538;8.584;2023-05-27T00:13:01;11.48;70.31
66522;SHT31;53349;53.538;8.584;2023-05-27T00:15:28;11.53;70.23
66522;SHT31;53349;53.538;8.584;2023-05-27T00:17:55;11.53;70.26
66522;SHT31;53349;53.538;8.584;2023-05-27T00:20:21;11.51;70.22
66522;SHT31;53349;53.538;8.584;2023-05-27T00:22:47;11.53;70.28
66522;SHT31;53349;53.538;8.584;2023-05-27T00:25:12;11.54;70.25
66522;SHT31;53349;53.538;8.584;2023-05-27T00:27:39;11.50;70.39
66522;SHT31;53349;53.538;8.584;2023-05-27T00:30:04;11.51;70.32
66522;SHT31;53349;53.538;8.584;2023-05-27T00:32:31;11.56;70.28
66522;SHT31;53349;53.538;8.584;2023-05-27T00:34:56;11.56;70.24
66522;SHT31;53349;53.538;8.584;2023-05-27T00:37:24;11.54;70.29
66522;SHT31;53349;53.538;8.584;2023-05-27T00:39:55;11.57;70.21
66522;SHT31;53349;53.538;8.584;2023-05-27T00:42:23;11.54;70.22
66522;SHT31;53349;53.538;8.584;2023-05-27T00:44:48;11.51;70.36
66522;SHT31;53349;53.538;8.584;2023-05-27T00:47:15;11.50;70.39
66522;SHT31;53349;53.538;8.584;2023-05-27T00:49:43;11.47;70.42
66522;SHT31;53349;53.538;8.584;2023-05-27T00:52:09;11.47;70.49
66522;SHT31;53349;53.538;8.584;2023-05-27T00:54:37;11.47;70.54
66522;SHT31;53349;53.538;8.584;2023-05-27T00:57:04;11.50;70.62
66522;SHT31;53349;53.538;8.584;2023-05-27T00:59:30;11.50;70.63
66522;SHT31;53349;53.538;8.584;2023-05-27T01:01:55;11.43;70.81
66522;SHT31;53349;53.538;8.584;2023-05-27T01:04:24;11.40;70.85
66522;SHT31;53349;53.538;8.584;2023-05-27T01:07:01;11.41;70.84
66522;SHT31;53349;53.538;8.584;2023-05-27T01:10:21;11.36;70.87
66522;SHT31;53349;53.538;8.584;2023-05-27T01:15:47;11.27;71.23
66522;SHT31;53349;53.538;8.584;2023-05-27T01:18:15;11.23;71.42
66522;SHT31;53349;53.538;8.584;2023-05-27T01:20:43;11.17;71.45
66522;SHT31;53349;53.538;8.584;2023-05-27T01:23:09;11.10;71.92
66522;SHT31;53349;53.538;8.584;2023-05-27T01:25:35;11.16;71.65
66522;SHT31;53349;53.538;8.584;2023-05-27T01:28:01;11.17;71.51
66522;SHT31;53349;53.538;8.584;2023-05-27T01:30:27;11.09;71.85
66522;SHT31;53349;53.538;8.584;2023-05-27T01:32:59;11.06;71.82
66522;SHT31;53349;53.538;8.584;2023-05-27T01:35:29;11.05;71.84
66522;SHT31;53349;53.538;8.584;2023-05-27T01:37:59;10.96;72.14
66522;SHT31;53349;53.538;8.584;2023-05-27T01:40:27;10.96;72.16
66522;SHT31;53349;53.538;8.584;2023-05-27T01:42:53;10.92;72.23
66522;SHT31;53349;53.538;8.584;2023-05-27T01:45:18;10.83;72.40
66522;SHT31;53349;53.538;8.584;2023-05-27T01:47:45;10.86;72.34
66522;SHT31;53349;53.538;8.584;2023-05-27T01:50:12;10.91;72.38
66522;SHT31;53349;53.538;8.584;2023-05-27T01:52:37;10.92;72.32
66522;SHT31;53349;53.538;8.584;2023-05-27T01:55:04;10.91;72.27
66522;SHT31;53349;53.538;8.584;2023-05-27T01:57:29;10.91;72.26
66522;SHT31;53349;53.538;8.584;2023-05-27T01:59:56;10.93;72.20
66522;SHT31;53349;53.538;8.584;2023-05-27T02:02:21;10.92;72.23
66522;SHT31;53349;53.538;8.584;2023-05-27T02:04:46;10.95;72.08
66522;SHT31;53349;53.538;8.584;2023-05-27T02:07:12;10.89;72.22
66522;SHT31;53349;53.538;8.584;2023-05-27T02:09:37;10.80;72.38
66522;SHT31;53349;53.538;8.584;2023-05-27T02:12:03;10.71;72.56
66522;SHT31;53349;53.538;8.584;2023-05-27T02:14:29;10.69;72.72
66522;SHT31;53349;53.538;8.584;2023-05-27T02:16:54;10.73;72.53
66522;SHT31;53349;53.538;8.584;2023-05-27T02:19:20;10.75;72.41
66522;SHT31;53349;53.538;8.584;2023-05-27T02:21:46;10.73;72.37
66522;SHT31;53349;53.538;8.584;2023-05-27T02:24:13;10.61;72.67
66522;SHT31;53349;53.538;8.584;2023-05-27T02:26:38;10.56;72.91
66522;SHT31;53349;53.538;8.584;2023-05-27T02:29:03;10.59;72.81
66522;SHT31;53349;53.538;8.584;2023-05-27T02:31:29;10.55;72.85
66522;SHT31;53349;53.538;8.584;2023-05-27T02:33:54;10.59;72.84
66522;SHT31;53349;53.538;8.584;2023-05-27T02:36:19;10.64;72.67
66522;SHT31;53349;53.538;8.584;2023-05-27T02:38:45;10.59;72.61
66522;SHT31;53349;53.538;8.584;2023-05-27T02:41:11;10.52;72.79
66522;SHT31;53349;53.538;8.584;2023-05-27T02:43:36;10.44;72.79
66522;SHT31;53349;53.538;8.584;2023-05-27T02:46:02;10.37;72.95
66522;SHT31;53349;53.538;8.584;2023-05-27T02:48:27;10.37;73.06
66522;SHT31;53349;53.538;8.584;2023-05-27T02:50:52;10.30;73.21
66522;SHT31;53349;53.538;8.584;2023-05-27T02:53:17;10.33;73.22
66522;SHT31;53349;53.538;8.584;2023-05-27T02:55:43;10.38;73.11
66522;SHT31;53349;53.538;8.584;2023-05-27T02:58:08;10.42;72.89
66522;SHT31;53349;53.538;8.584;2023-05-27T03:00:35;10.33;73.18
66522;SHT31;53349;53.538;8.584;2023-05-27T03:03:00;10.25;73.40
66522;SHT31;53349;53.538;8.584;2023-05-27T03:05:26;10.28;73.30
66522;SHT31;53349;53.538;8.584;2023-05-27T03:07:51;10.24;73.32
66522;SHT31;53349;53.538;8.584;2023-05-27T03:10:16;10.27;73.37
66522;SHT31;53349;53.538;8.584;2023-05-27T03:12:42;10.33;73.17
66522;SHT31;53349;53.538;8.584;2023-05-27T03:15:07;10.37;73.14
66522;SHT31;53349;53.538;8.584;2023-05-27T03:17:36;10.41;72.99
66522;SHT31;53349;53.538;8.584;2023-05-27T03:20:02;10.38;73.01
66522;SHT31;53349;53.538;8.584;2023-05-27T03:22:27;10.38;72.98
66522;SHT31;53349;53.538;8.584;2023-05-27T03:24:52;10.42;72.85
66522;SHT31;53349;53.538;8.584;2023-05-27T03:27:18;10.41;72.86
66522;SHT31;53349;53.538;8.584;2023-05-27T03:29:43;10.35;72.70
66522;SHT31;53349;53.538;8.584;2023-05-27T03:32:08;10.34;72.67
66522;SHT31;53349;53.538;8.584;2023-05-27T03:34:34;10.17;72.93
66522;SHT31;53349;53.538;8.584;2023-05-27T03:37:00;10.17;73.19
66522;SHT31;53349;53.538;8.584;2023-05-27T03:39:25;10.15;73.20
66522;SHT31;53349;53.538;8.584;2023-05-27T03:41:50;10.15;73.21
66522;SHT31;53349;53.538;8.584;2023-05-27T03:44:17;10.14;73.13
66522;SHT31;53349;53.538;8.584;2023-05-27T03:46:42;10.13;73.07
66522;SHT31;53349;53.538;8.584;2023-05-27T03:49:07;10.14;73.20
66522;SHT31;53349;53.538;8.584;2023-05-27T03:51:32;10.11;73.18
66522;SHT31;53349;53.538;8.584;2023-05-27T03:53:58;10.13;73.32
66522;SHT31;53349;53.538;8.584;2023-05-27T03:56:23;10.17;72.99
66522;SHT31;53349;53.538;8.584;2023-05-27T03:58:49;10.30;72.93
66522;SHT31;53349;53.538;8.584;2023-05-27T04:01:15;10.41;72.85
66522;SHT31;53349;53.538;8.584;2023-05-27T04:03:41;10.42;72.48
66522;SHT31;53349;53.538;8.584;2023-05-27T04:06:17;10.49;72.17
66522;SHT31;53349;53.538;8.584;2023-05-27T04:08:42;10.45;71.99
66522;SHT31;53349;53.538;8.584;2023-05-27T04:11:11;10.61;72.04
66522;SHT31;53349;53.538;8.584;2023-05-27T04:13:38;10.69;71.49
66522;SHT31;53349;53.538;8.584;2023-05-27T04:16:03;10.85;71.21
66522;SHT31;53349;53.538;8.584;2023-05-27T04:18:29;11.03;70.79
66522;SHT31;53349;53.538;8.584;2023-05-27T04:20:54;11.16;70.21
66522;SHT31;53349;53.538;8.584;2023-05-27T04:23:19;11.33;70.23
66522;SHT31;53349;53.538;8.584;2023-05-27T04:25:45;11.43;69.50
66522;SHT31;53349;53.538;8.584;2023-05-27T04:28:13;11.50;68.73
66522;SHT31;53349;53.538;8.584;2023-05-27T04:30:38;11.54;68.91
66522;SHT31;53349;53.538;8.584;2023-05-27T04:33:06;11.57;68.33
66522;SHT31;53349;53.538;8.584;2023-05-27T04:35:32;11.51;68.49
66522;SHT31;53349;53.538;8.584;2023-05-27T04:37:58;11.57;68.61
66522;SHT31;53349;53.538;8.584;2023-05-27T04:40:23;11.60;68.43
66522;SHT31;53349;53.538;8.584;2023-05-27T04:42:50;11.53;68.45
66522;SHT31;53349;53.538;8.584;2023-05-27T04:45:15;11.43;68.58
66522;SHT31;53349;53.538;8.584;2023-05-27T04:47:41;11.41;68.76
66522;SHT31;53349;53.538;8.584;2023-05-27T04:50:07;11.44;68.83
66522;SHT31;53349;53.538;8.584;2023-05-27T04:52:36;11.50;68.86
66522;SHT31;53349;53.538;8.584;2023-05-27T04:55:03;11.58;68.61
66522;SHT31;53349;53.538;8.584;2023-05-27T04:57:30;11.75;68.38
66522;SHT31;53349;53.538;8.584;2023-05-27T04:59:55;11.89;67.86
66522;SHT31;53349;53.538;8.584;2023-05-27T05:02:22;11.89;67.75
66522;SHT31;53349;53.538;8.584;2023-05-27T05:04:47;11.91;67.62
66522;SHT31;53349;53.538;8.584;2023-05-27T05:07:13;11.99;67.51
66522;SHT31;53349;53.538;8.584;2023-05-27T05:09:38;12.06;67.53
66522;SHT31;53349;53.538;8.584;2023-05-27T05:12:04;12.18;67.34
66522;SHT31;53349;53.538;8.584;2023-05-27T05:14:29;12.26;67.12
66522;SHT31;53349;53.538;8.584;2023-05-27T05:16:54;12.26;66.81
66522;SHT31;53349;53.538;8.584;2023-05-27T05:19:19;12.46;66.58
66522;SHT31;53349;53.538;8.584;2023-05-27T05:21:45;12.63;66.15
66522;SHT31;53349;53.538;8.584;2023-05-27T05:24:10;12.84;65.62
66522;SHT31;53349;53.538;8.584;2023-05-27T05:26:38;13.15;64.97
66522;SHT31;53349;53.538;8.584;2023-05-27T05:29:03;13.51;64.08
66522;SHT31;53349;53.538;8.584;2023-05-27T05:31:28;13.83;63.04
66522;SHT31;53349;53.538;8.584;2023-05-27T05:33:53;14.18;62.49
66522;SHT31;53349;53.538;8.584;2023-05-27T05:36:19;14.24;61.71
66522;SHT31;53349;53.538;8.584;2023-05-27T05:38:44;14.44;61.50
66522;SHT31;53349;53.538;8.584;2023-05-27T05:41:09;14.68;61.06
66522;SHT31;53349;53.538;8.584;2023-05-27T05:43:34;14.75;60.56
66522;SHT31;53349;53.538;8.584;2023-05-27T05:46:00;15.08;60.37
66522;SHT31;53349;53.538;8.584;2023-05-27T05:48:25;15.25;59.22
66522;SHT31;53349;53.538;8.584;2023-05-27T05:50:51;15.46;59.16
66522;SHT31;53349;53.538;8.584;2023-05-27T05:53:17;15.74;57.98
66522;SHT31;53349;53.538;8.584;2023-05-27T05:55:44;16.14;57.43
66522;SHT31;53349;53.538;8.584;2023-05-27T05:58:09;16.26;56.75
66522;SHT31;53349;53.538;8.584;2023-05-27T06:00:35;16.49;56.32
66522;SHT31;53349;53.538;8.584;2023-05-27T06:03:00;16.56;55.62
66522;SHT31;53349;53.538;8.584;2023-05-27T06:05:26;16.80;54.98
66522;SHT31;53349;53.538;8.584;2023-05-27T06:07:52;16.76;54.47
66522;SHT31;53349;53.538;8.584;2023-05-27T06:10:17;16.91;54.56
66522;SHT31;53349;53.538;8.584;2023-05-27T06:12:43;17.11;54.02
66522;SHT31;53349;53.538;8.584;2023-05-27T06:15:08;17.28;53.76
66522;SHT31;53349;53.538;8.584;2023-05-27T06:17:34;17.35;53.36
66522;SHT31;53349;53.538;8.584;2023-05-27T06:19:59;17.65;52.57
66522;SHT31;53349;53.538;8.584;2023-05-27T06:22:25;17.49;53.03
66522;SHT31;53349;53.538;8.584;2023-05-27T06:24:50;17.72;52.47
66522;SHT31;53349;53.538;8.584;2023-05-27T06:27:16;17.95;52.31
66522;SHT31;53349;53.538;8.584;2023-05-27T06:29:41;18.17;51.58
66522;SHT31;53349;53.538;8.584;2023-05-27T06:32:08;18.34;51.11
66522;SHT31;53349;53.538;8.584;2023-05-27T06:34:34;18.64;50.70
66522;SHT31;53349;53.538;8.584;2023-05-27T06:37:00;18.78;50.58
66522;SHT31;53349;53.538;8.584;2023-05-27T06:39:26;18.61;51.19
66522;SHT31;53349;53.538;8.584;2023-05-27T06:41:51;18.61;51.38
66522;SHT31;53349;53.538;8.584;2023-05-27T06:44:17;18.94;50.64
66522;SHT31;53349;53.538;8.584;2023-05-27T06:46:43;19.12;50.21
66522;SHT31;53349;53.538;8.584;2023-05-27T06:49:08;19.35;49.72
66522;SHT31;53349;53.538;8.584;2023-05-27T06:51:48;19.49;49.58
66522;SHT31;53349;53.538;8.584;2023-05-27T06:54:14;19.67;49.18
66522;SHT31;53349;53.538;8.584;2023-05-27T06:56:39;19.83;48.57
66522;SHT31;53349;53.538;8.584;2023-05-27T06:59:06;19.69;48.75
66522;SHT31;53349;53.538;8.584;2023-05-27T07:01:31;19.91;48.59
66522;SHT31;53349;53.538;8.584;2023-05-27T07:04:00;20.29;47.84
66522;SHT31;53349;53.538;8.584;2023-05-27T07:06:27;20.37;47.75
66522;SHT31;53349;53.538;8.584;2023-05-27T07:08:54;20.35;47.72
66522;SHT31;53349;53.538;8.584;2023-05-27T07:11:21;20.62;47.00
66522;SHT31;53349;53.538;8.584;2023-05-27T07:13:47;20.64;47.28
66522;SHT31;53349;53.538;8.584;2023-05-27T07:16:15;20.69;46.93
66522;SHT31;53349;53.538;8.584;2023-05-27T07:18:41;20.82;47.02
66522;SHT31;53349;53.538;8.584;2023-05-27T07:21:06;21.04;46.55
66522;SHT31;53349;53.538;8.584;2023-05-27T07:23:33;21.17;46.51
66522;SHT31;53349;53.538;8.584;2023-05-27T07:25:59;21.04;47.05
66522;SHT31;53349;53.538;8.584;2023-05-27T07:28:25;21.24;46.62
66522;SHT31;53349;53.538;8.584;2023-05-27T07:30:50;21.36;48.08
66522;SHT31;53349;53.538;8.584;2023-05-27T07:33:16;21.30;46.66
66522;SHT31;53349;53.538;8.584;2023-05-27T07:35:41;21.04;50.22
66522;SHT31;53349;53.538;8.584;2023-05-27T07:38:12;21.11;47.90
66522;SHT31;53349;53.538;8.584;2023-05-27T07:40:38;20.78;47.27
66522;SHT31;53349;53.538;8.584;2023-05-27T07:43:06;20.28;49.00
66522;SHT31;53349;53.538;8.584;2023-05-27T07:45:32;20.42;49.67
66522;SHT31;53349;53.538;8.584;2023-05-27T07:47:57;20.27;50.54
66522;SHT31;53349;53.538;8.584;2023-05-27T07:50:22;20.21;52.48
66522;SHT31;53349;53.538;8.584;2023-05-27T07:52:48;20.10;51.07
66522;SHT31;53349;53.538;8.584;2023-05-27T07:55:15;19.65;50.91
66522;SHT31;53349;53.538;8.584;2023-05-27T07:57:40;19.76;51.63
66522;SHT31;53349;53.538;8.584;2023-05-27T08:00:06;19.91;51.29
66522;SHT31;53349;53.538;8.584;2023-05-27T08:02:31;20.08;51.47
66522;SHT31;53349;53.538;8.584;2023-05-27T08:04:57;20.03;51.59
66522;SHT31;53349;53.538;8.584;2023-05-27T08:07:22;19.76;50.75
66522;SHT31;53349;53.538;8.584;2023-05-27T08:09:48;19.52;50.74
66522;SHT31;53349;53.538;8.584;2023-05-27T12:41:47;21.44;51.10
66522;SHT31;53349;53.538;8.584;2023-05-27T12:44:13;21.33;51.56
66522;SHT31;53349;53.538;8.584;2023-05-27T12:46:39;21.23;51.87
66522;SHT31;53349;53.538;8.584;2023-05-27T12:49:05;21.14;52.21
66522;SHT31;53349;53.538;8.584;2023-05-27T12:51:30;21.10;52.64
66522;SHT31;53349;53.538;8.584;2023-05-27T12:53:57;21.07;52.51
66522;SHT31;53349;53.538;8.584;2023-05-27T12:56:22;20.97;52.88
66522;SHT31;53349;53.538;8.584;2023-05-27T12:58:49;21.00;53.19
66522;SHT31;53349;53.538;8.584;2023-05-27T13:01:15;20.96;53.56
66522;SHT31;53349;53.538;8.584;2023-05-27T13:03:40;20.82;53.75
66522;SHT31;53349;53.538;8.584;2023-05-27T13:06:05;20.80;53.91
66522;SHT31;53349;53.538;8.584;2023-05-27T13:08:31;20.76;54.28
66522;SHT31;53349;53.538;8.584;2023-05-27T13:10:56;20.69;54.14
66522;SHT31;53349;53.538;8.584;2023-05-27T13:13:21;20.69;54.55
66522;SHT31;53349;53.538;8.584;2023-05-27T13:15:47;20.61;54.64
66522;SHT31;53349;53.538;8.584;2023-05-27T13:18:13;20.62;54.75
66522;SHT31;53349;53.538;8.584;2023-05-27T13:20:39;20.58;55.36
66522;SHT31;53349;53.538;8.584;2023-05-27T13:23:04;20.59;54.82
66522;SHT31;53349;53.538;8.584;2023-05-27T13:25:31;20.59;55.20
66522;SHT31;53349;53.538;8.584;2023-05-27T13:27:57;20.64;55.31
66522;SHT31;53349;53.538;8.584;2023-05-27T13:30:22;20.62;55.09
66522;SHT31;53349;53.538;8.584;2023-05-27T13:32:48;20.59;55.36
66522;SHT31;53349;53.538;8.584;2023-05-27T13:35:15;20.61;55.66
66522;SHT31;53349;53.538;8.584;2023-05-27T13:37:41;20.61;55.77
66522;SHT31;53349;53.538;8.584;2023-05-27T13:40:07;20.56;55.91
66522;SHT31;53349;53.538;8.584;2023-05-27T13:42:33;20.42;56.33
66522;SHT31;53349;53.538;8.584;2023-05-27T13:45:05;20.42;56.54
66522;SHT31;53349;53.538;8.584;2023-05-27T13:47:30;20.45;56.45
66522;SHT31;53349;53.538;8.584;2023-05-27T13:49:57;20.42;56.58
66522;SHT31;53349;53.538;8.584;2023-05-27T13:52:22;20.45;56.92
66522;SHT31;53349;53.538;8.584;2023-05-27T13:54:47;20.42;56.89
66522;SHT31;53349;53.538;8.584;2023-05-27T13:57:13;20.41;57.03
66522;SHT31;53349;53.538;8.584;2023-05-27T13:59:39;20.39;57.30
66522;SHT31;53349;53.538;8.584;2023-05-27T14:02:06;20.41;57.43
66522;SHT31;53349;53.538;8.584;2023-05-27T14:04:32;20.41;57.69
66522;SHT31;53349;53.538;8.584;2023-05-27T14:06:59;20.39;57.83
66522;SHT31;53349;53.538;8.584;2023-05-27T14:09:24;20.39;57.76
66522;SHT31;53349;53.538;8.584;2023-05-27T14:11:49;20.39;57.67
66522;SHT31;53349;53.538;8.584;2023-05-27T14:14:15;20.39;57.58
66522;SHT31;53349;53.538;8.584;2023-05-27T14:16:40;20.44;57.17
66522;SHT31;53349;53.538;8.584;2023-05-27T14:19:06;20.44;57.14
66522;SHT31;53349;53.538;8.584;2023-05-27T14:21:31;20.47;57.03
66522;SHT31;53349;53.538;8.584;2023-05-27T14:23:58;20.51;56.74
66522;SHT31;53349;53.538;8.584;2023-05-27T14:26:28;20.45;56.41
66522;SHT31;53349;53.538;8.584;2023-05-27T14:28:54;20.42;56.02
66522;SHT31;53349;53.538;8.584;2023-05-27T14:31:20;20.38;55.94
66522;SHT31;53349;53.538;8.584;2023-05-27T14:33:48;20.37;55.74
66522;SHT31;53349;53.538;8.584;2023-05-27T14:36:14;20.29;55.78
66522;SHT31;53349;53.538;8.584;2023-05-27T14:38:40;20.34;56.03
66522;SHT31;53349;53.538;8.584;2023-05-27T14:41:05;20.29;56.01
66522;SHT31;53349;53.538;8.584;2023-05-27T14:43:30;20.29;55.67
66522;SHT31;53349;53.538;8.584;2023-05-27T14:45:56;20.31;55.72
66522;SHT31;53349;53.538;8.584;2023-05-27T14:48:24;20.27;55.42
66522;SHT31;53349;53.538;8.584;2023-05-27T14:50:54;20.22;54.92
66522;SHT31;53349;53.538;8.584;2023-05-27T14:53:19;20.25;54.72
66522;SHT31;53349;53.538;8.584;2023-05-27T14:55:46;20.25;54.34
66522;SHT31;53349;53.538;8.584;2023-05-27T14:58:11;20.22;53.77
66522;SHT31;53349;53.538;8.584;2023-05-27T15:00:37;20.27;53.91
66522;SHT31;53349;53.538;8.584;2023-05-27T15:03:04;20.24;53.17
66522;SHT31;53349;53.538;8.584;2023-05-27T15:05:31;20.17;53.41
66522;SHT31;53349;53.538;8.584;2023-05-27T15:07:56;20.18;53.57
66522;SHT31;53349;53.538;8.584;2023-05-27T15:10:22;20.20;53.27
66522;SHT31;53349;53.538;8.584;2023-05-27T15:12:48;20.22;53.09
66522;SHT31;53349;53.538;8.584;2023-05-27T15:15:21;20.24;52.85
66522;SHT31;53349;53.538;8.584;2023-05-27T15:17:48;20.22;52.62
66522;SHT31;53349;53.538;8.584;2023-05-27T15:20:15;20.25;52.66
66522;SHT31;53349;53.538;8.584;2023-05-27T15:22:40;20.27;52.65
66522;SHT31;53349;53.538;8.584;2023-05-27T15:25:06;20.21;52.68
66522;SHT31;53349;53.538;8.584;2023-05-27T15:27:32;20.21;52.67
66522;SHT31;53349;53.538;8.584;2023-05-27T15:29:57;20.24;52.57
66522;SHT31;53349;53.538;8.584;2023-05-27T15:32:24;20.20;52.68
66522;SHT31;53349;53.538;8.584;2023-05-27T15:34:50;20.20;53.16
66522;SHT31;53349;53.538;8.584;2023-05-27T15:37:16;20.21;52.40
66522;SHT31;53349;53.538;8.584;2023-05-27T15:39:43;20.25;52.52
66522;SHT31;53349;53.538;8.584;2023-05-27T15:42:09;20.25;52.63
66522;SHT31;53349;53.538;8.584;2023-05-27T15:44:34;20.25;52.23
66522;SHT31;53349;53.538;8.584;2023-05-27T15:47:04;20.22;52.09
66522;SHT31;53349;53.538;8.584;2023-05-27T15:49:29;20.22;52.33
66522;SHT31;53349;53.538;8.584;2023-05-27T15:51:55;20.21;52.54
66522;SHT31;53349;53.538;8.584;2023-05-27T15:54:20;20.22;52.84
66522;SHT31;53349;53.538;8.584;2023-05-27T15:56:45;20.17;52.48
66522;SHT31;53349;53.538;8.584;2023-05-27T15:59:11;20.20;52.87
66522;SHT31;53349;53.538;8.584;2023-05-27T18:59:10;18.40;54.97
66522;SHT31;53349;53.538;8.584;2023-05-27T19:01:38;18.36;54.91
66522;SHT31;53349;53.538;8.584;2023-05-27T19:04:03;18.34;54.57
66522;SHT31;53349;53.538;8.584;2023-05-27T19:06:29;18.32;54.53
66522;SHT31;53349;53.538;8.584;2023-05-27T19:08:57;18.27;54.84
66522;SHT31;53349;53.538;8.584;2023-05-27T19:11:22;18.26;54.66
66522;SHT31;53349;53.538;8.584;2023-05-27T19:13:49;18.20;54.64
66522;SHT31;53349;53.538;8.584;2023-05-27T19:16:16;18.20;54.69
66522;SHT31;53349;53.538;8.584;2023-05-27T19:18:41;18.16;54.72
66522;SHT31;53349;53.538;8.584;2023-05-27T19:21:07;18.14;54.94
66522;SHT31;53349;53.538;8.584;2023-05-27T19:23:38;18.07;54.67
66522;SHT31;53349;53.538;8.584;2023-05-27T19:26:07;17.98;55.01
66522;SHT31;53349;53.538;8.584;2023-05-27T19:28:32;17.89;55.13
66522;SHT31;53349;53.538;8.584;2023-05-27T19:30:58;17.83;55.25
66522;SHT31;53349;53.538;8.584;2023-05-27T19:33:26;17.82;55.28
66522;SHT31;53349;53.538;8.584;2023-05-27T19:35:51;17.81;55.34
66522;SHT31;53349;53.538;8.584;2023-05-27T19:38:17;17.79;55.67
66522;SHT31;53349;53.538;8.584;2023-05-27T19:40:49;17.68;55.96
66522;SHT31;53349;53.538;8.584;2023-05-27T19:43:15;17.61;56.00
66522;SHT31;53349;53.538;8.584;2023-05-27T19:45:43;17.57;56.08
66522;SHT31;53349;53.538;8.584;2023-05-27T19:48:08;17.51;56.24
66522;SHT31;53349;53.538;8.584;2023-05-27T19:50:35;17.47;56.29
66522;SHT31;53349;53.538;8.584;2023-05-27T19:53:00;17.41;56.51
66522;SHT31;53349;53.538;8.584;2023-05-27T19:55:26;17.31;57.48
66522;SHT31;53349;53.538;8.584;2023-05-27T19:57:51;17.35;58.59
66522;SHT31;53349;53.538;8.584;2023-05-27T20:00:17;17.26;58.12
66522;SHT31;53349;53.538;8.584;2023-05-27T20:02:44;17.27;58.56
66522;SHT31;53349;53.538;8.584;2023-05-27T20:05:09;17.28;57.79
66522;SHT31;53349;53.538;8.584;2023-05-27T20:07:36;17.28;58.12
66522;SHT31;53349;53.538;8.584;2023-05-27T20:10:02;17.26;58.07
66522;SHT31;53349;53.538;8.584;2023-05-27T20:12:45;17.23;57.91
66522;SHT31;53349;53.538;8.584;2023-05-27T20:15:12;17.18;58.30
66522;SHT31;53349;53.538;8.584;2023-05-27T20:17:41;17.17;58.62
66522;SHT31;53349;53.538;8.584;2023-05-27T20:20:08;17.08;58.95
66522;SHT31;53349;53.538;8.584;2023-05-27T20:22:35;17.06;59.28
66522;SHT31;53349;53.538;8.584;2023-05-27T20:25:03;17.03;59.50
66522;SHT31;53349;53.538;8.584;2023-05-27T20:27:29;17.00;59.47
66522;SHT31;53349;53.538;8.584;2023-05-27T20:29:55;16.99;59.50
66522;SHT31;53349;53.538;8.584;2023-05-27T20:32:21;16.99;59.46
66522;SHT31;53349;53.538;8.584;2023-05-27T20:34:51;16.97;59.57
66522;SHT31;53349;53.538;8.584;2023-05-27T20:37:21;16.93;59.46
66522;SHT31;53349;53.538;8.584;2023-05-27T20:39:46;16.84;59.41
66522;SHT31;53349;53.538;8.584;2023-05-27T20:42:12;16.76;59.51
66522;SHT31;53349;53.538;8.584;2023-05-27T20:44:39;16.76;59.70
66522;SHT31;53349;53.538;8.584;2023-05-27T20:47:04;16.76;59.66
66522;SHT31;53349;53.538;8.584;2023-05-27T20:49:33;16.75;59.91
66522;SHT31;53349;53.538;8.584;2023-05-27T20:51:58;16.70;59.97
66522;SHT31;53349;53.538;8.584;2023-05-27T20:54:23;16.70;60.14
66522;SHT31;53349;53.538;8.584;2023-05-27T20:56:49;16.67;60.16
66522;SHT31;53349;53.538;8.584;2023-05-27T20:59:15;16.63;60.17
66522;SHT31;53349;53.538;8.584;2023-05-27T21:01:45;16.60;60.35
66522;SHT31;53349;53.538;8.584;2023-05-27T21:04:12;16.60;60.41
66522;SHT31;53349;53.538;8.584;2023-05-27T21:06:37;16.53;60.69
66522;SHT31;53349;53.538;8.584;2023-05-27T21:09:03;16.52;60.99
66522;SHT31;53349;53.538;8.584;2023-05-27T21:11:29;16.44;61.03
66522;SHT31;53349;53.538;8.584;2023-05-27T21:13:55;16.39;61.27
66522;SHT31;53349;53.538;8.584;2023-05-27T21:16:22;16.28;61.42
66522;SHT31;53349;53.538;8.584;2023-05-27T21:18:47;16.29;61.54
66522;SHT31;53349;53.538;8.584;2023-05-27T21:21:12;16.17;61.69
66522;SHT31;53349;53.538;8.584;2023-05-27T21:23:38;16.09;62.06
66522;SHT31;53349;53.538;8.584;2023-05-27T21:26:03;16.02;62.26
66522;SHT31;53349;53.538;8.584;2023-05-27T21:28:30;15.97;62.45
66522;SHT31;53349;53.538;8.584;2023-05-27T21:30:57;15.90;62.64
66522;SHT31;53349;53.538;8.584;2023-05-27T21:33:22;15.88;62.67
66522;SHT31;53349;53.538;8.584;2023-05-27T21:35:47;15.94;62.64
66522;SHT31;53349;53.538;8.584;2023-05-27T21:38:17;15.93;62.67
66522;SHT31;53349;53.538;8.584;2023-05-27T21:40:48;15.93;62.74
66522;SHT31;53349;53.538;8.584;2023-05-27T21:43:15;15.87;62.88
66522;SHT31;53349;53.538;8.584;2023-05-27T21:45:49;15.83;63.02
66522;SHT31;53349;53.538;8.584;2023-05-27T21:48:17;15.88;62.87
66522;SHT31;53349;53.538;8.584;2023-05-27T21:50:43;15.88;63.01
66522;SHT31;53349;53.538;8.584;2023-05-27T21:53:09;15.78;63.27
66522;SHT31;53349;53.538;8.584;2023-05-27T21:55:34;15.76;63.35
66522;SHT31;53349;53.538;8.584;2023-05-27T21:58:00;15.67;63.63
66522;SHT31;53349;53.538;8.584;2023-05-27T22:00:27;15.61;63.62
66522;SHT31;53349;53.538;8.584;2023-05-27T22:02:54;15.60;63.69
66522;SHT31;53349;53.538;8.584;2023-05-27T22:05:20;15.58;63.66
66522;SHT31;53349;53.538;8.584;2023-05-27T22:07:46;15.61;63.69
66522;SHT31;53349;53.538;8.584;2023-05-27T22:10:12;15.54;64.02
66522;SHT31;53349;53.538;8.584;2023-05-27T22:12:38;15.56;64.19
66522;SHT31;53349;53.538;8.584;2023-05-27T22:15:04;15.43;64.49
66522;SHT31;53349;53.538;8.584;2023-05-27T22:17:29;15.40;64.83
66522;SHT31;53349;53.538;8.584;2023-05-27T22:19:55;15.33;65.25
66522;SHT31;53349;53.538;8.584;2023-05-27T22:22:20;15.33;65.35
66522;SHT31;53349;53.538;8.584;2023-05-27T22:24:48;15.30;65.49
66522;SHT31;53349;53.538;8.584;2023-05-27T22:27:13;15.26;65.79
66522;SHT31;53349;53.538;8.584;2023-05-27T22:29:38;15.22;66.08
66522;SHT31;53349;53.538;8.584;2023-05-27T22:32:05;15.19;66.38
66522;SHT31;53349;53.538;8.584;2023-05-27T22:34:31;15.15;66.55
66522;SHT31;53349;53.538;8.584;2023-05-27T22:36:56;15.13;66.69
66522;SHT31;53349;53.538;8.584;2023-05-27T22:39:21;15.08;67.05
66522;SHT31;53349;53.538;8.584;2023-05-27T22:41:47;15.03;67.37
66522;SHT31;53349;53.538;8.584;2023-05-27T22:44:12;15.02;67.28
66522;SHT31;53349;53.538;8.584;2023-05-27T22:46:38;14.96;67.59
66522;SHT31;53349;53.538;8.584;2023-05-27T22:49:05;14.99;67.51
66522;SHT31;53349;53.538;8.584;2023-05-27T22:51:31;14.95;67.62
66522;SHT31;53349;53.538;8.584;2023-05-27T22:53:57;14.95;67.89